Time;durP1;ratioP1;P1;durP2;ratioP2;P2;SDS_P1;SDS_P2;PMS_P1;PMS_P2;Temp;Humidity;BMP_temperature;BMP_pressure;BME280_temperature;BME280_humidity;BME280_pressure;Samples;Min_cycle;Max_cycle;Signal;HPM_P1;HPM_P2
2021/01/27 00:01:07;;;;;;;5.73;4.63;;;;;;;;;;4935704;29;20600;-82
2021/01/27 00:04:12;;;;;;;6.07;4.10;;;;;;;;;;4926150;29;20560;-82
2021/01/27 00:07:16;;;;;;;8.53;4.27;;;;;;;;;;4936792;29;20647;-82
2021/01/27 00:10:20;;;;;;;7.10;4.27;;;;;;;;;;4925868;29;20631;-82
2021/01/27 00:13:24;;;;;;;5.47;3.83;;;;;;;;;;4926346;29;20556;-82
2021/01/27 00:16:28;;;;;;;6.37;3.90;;;;;;;;;;4925849;29;20553;-82
2021/01/27 00:19:33;;;;;;;4.10;3.30;;;;;;;;;;4907217;29;20545;-82
2021/01/27 00:22:37;;;;;;;8.57;4.40;;;;;;;;;;4929277;29;21296;-82
2021/01/27 00:25:42;;;;;;;6.57;3.87;;;;;;;;;;4906781;29;20545;-82
2021/01/27 00:28:45;;;;;;;5.03;3.63;;;;;;;;;;4917537;29;20542;-82
2021/01/27 00:31:50;;;;;;;6.90;3.40;;;;;;;;;;4917625;29;20628;-82
2021/01/27 00:34:55;;;;;;;5.83;3.83;;;;;;;;;;4906964;29;20557;-82
2021/01/27 00:38:00;;;;;;;4.97;3.67;;;;;;;;;;4917709;29;21064;-82
2021/01/27 00:41:05;;;;;;;5.90;3.80;;;;;;;;;;4895759;29;20557;-82
2021/01/27 00:44:09;;;;;;;4.47;3.53;;;;;;;;;;4906999;29;20550;-82
2021/01/27 00:47:13;;;;;;;7.23;3.57;;;;;;;;;;4933273;29;20639;-82
2021/01/27 00:50:17;;;;;;;5.83;3.80;;;;;;;;;;4925266;29;20592;-82
2021/01/27 00:53:27;;;;;;;5.17;3.07;;;;;;;;;;4925503;29;21158;-82
2021/01/27 00:56:31;;;;;;;4.87;3.43;;;;;;;;;;4914761;29;20549;-81
2021/01/27 00:59:35;;;;;;;5.70;3.37;;;;;;;;;;4925245;29;20556;-82
2021/01/27 01:02:39;;;;;;;5.27;3.37;;;;;;;;;;4924996;29;21245;-82
2021/01/27 01:05:45;;;;;;;5.07;3.40;;;;;;;;;;4936133;29;20569;-82
2021/01/27 01:08:49;;;;;;;3.90;3.17;;;;;;;;;;4925267;29;20561;-82
2021/01/27 01:11:55;;;;;;;4.57;3.30;;;;;;;;;;4935745;29;20647;-82
2021/01/27 01:14:59;;;;;;;4.20;3.47;;;;;;;;;;4925066;29;20553;-82
2021/01/27 01:18:03;;;;;;;5.77;3.07;;;;;;;;;;4936120;29;20541;-82
2021/01/27 01:21:07;;;;;;;8.37;3.57;;;;;;;;;;4916775;29;20546;-82
2021/01/27 01:24:12;;;;;;;4.30;3.00;;;;;;;;;;4906026;29;20557;-82
2021/01/27 01:27:16;;;;;;;9.13;4.10;;;;;;;;;;4916782;29;20644;-82
2021/01/27 01:30:24;;;;;;;6.60;3.50;;;;;;;;;;4895332;29;20565;-82
2021/01/27 01:33:31;;;;;;;5.43;3.23;;;;;;;;;;4905968;29;20550;-82
2021/01/27 01:36:35;;;;;;;5.40;3.43;;;;;;;;;;4920657;29;20619;-82
2021/01/27 01:39:39;;;;;;;7.17;3.67;;;;;;;;;;4924828;29;20552;-82
2021/01/27 01:42:44;;;;;;;7.67;3.90;;;;;;;;;;4895043;29;20621;-82
2021/01/27 01:45:51;;;;;;;3.53;3.23;;;;;;;;;;4905545;29;20561;-82
2021/01/27 01:49:00;;;;;;;5.90;3.23;;;;;;;;;;4917540;29;20557;-83
2021/01/27 01:52:05;;;;;;;7.10;3.80;;;;;;;;;;4924731;29;20620;-82
2021/01/27 01:55:09;;;;;;;5.03;3.47;;;;;;;;;;4924273;29;20615;-82
2021/01/27 01:58:13;;;;;;;6.00;3.90;;;;;;;;;;4924369;29;20600;-82
2021/01/27 02:01:20;;;;;;;5.07;3.53;;;;;;;;;;4913211;29;20628;-82
2021/01/27 02:04:28;;;;;;;5.63;3.63;;;;;;;;;;4935440;29;20889;-82
2021/01/27 02:07:32;;;;;;;5.30;3.50;;;;;;;;;;4905091;29;20653;-82
2021/01/27 02:10:36;;;;;;;6.87;4.57;;;;;;;;;;4916335;29;20561;-83
2021/01/27 02:13:54;;;;;;;5.90;3.90;;;;;;;;;;4905270;29;20553;-82
2021/01/27 02:17:03;;;;;;;6.07;3.70;;;;;;;;;;4920074;29;20956;-82
2021/01/27 02:20:21;;;;;;;5.23;4.20;;;;;;;;;;4924112;29;20600;-82
2021/01/27 02:23:46;;;;;;;6.97;3.80;;;;;;;;;;4924678;29;20549;-83
2021/01/27 02:27:07;;;;;;;7.77;3.90;;;;;;;;;;4911040;29;20596;-82
2021/01/27 02:30:24;;;;;;;6.80;4.27;;;;;;;;;;4913627;29;21095;-82
2021/01/27 02:34:01;;;;;;;6.13;3.90;;;;;;;;;;4916437;29;20530;-82
2021/01/27 02:37:09;;;;;;;5.60;4.20;;;;;;;;;;4926997;29;20558;-83
2021/01/27 02:40:23;;;;;;;7.47;4.40;;;;;;;;;;4923511;29;20585;-82
2021/01/27 02:43:55;;;;;;;7.83;4.17;;;;;;;;;;4912824;29;20616;-82
2021/01/27 02:47:06;;;;;;;5.70;3.93;;;;;;;;;;4924858;29;20584;-82
2021/01/27 02:50:20;;;;;;;4.33;3.60;;;;;;;;;;4927866;29;20588;-82
2021/01/27 02:53:29;;;;;;;5.67;3.70;;;;;;;;;;4928238;29;20556;-82
2021/01/27 02:56:41;;;;;;;6.40;4.20;;;;;;;;;;4928093;29;20607;-82
2021/01/27 02:59:56;;;;;;;8.50;3.63;;;;;;;;;;4927745;29;20595;-82
2021/01/27 03:03:21;;;;;;;7.87;3.77;;;;;;;;;;4927397;29;20651;-82
2021/01/27 03:06:25;;;;;;;5.10;4.13;;;;;;;;;;4916960;29;20565;-82
2021/01/27 03:09:38;;;;;;;4.93;3.57;;;;;;;;;;4927913;29;20541;-82
2021/01/27 03:12:42;;;;;;;7.47;3.93;;;;;;;;;;4927372;29;20643;-82
2021/01/27 03:15:46;;;;;;;6.23;3.87;;;;;;;;;;4938741;29;20908;-82
2021/01/27 03:19:11;;;;;;;7.70;4.67;;;;;;;;;;4927340;29;20556;-82
2021/01/27 03:22:21;;;;;;;5.73;4.10;;;;;;;;;;4938331;29;21197;-82
2021/01/27 03:25:30;;;;;;;6.83;4.17;;;;;;;;;;4927571;29;21068;-82
2021/01/27 03:28:41;;;;;;;4.63;3.87;;;;;;;;;;4937620;29;20628;-82
2021/01/27 03:31:45;;;;;;;7.67;4.27;;;;;;;;;;4927917;29;20628;-82
2021/01/27 03:34:59;;;;;;;7.20;4.30;;;;;;;;;;4927131;29;21103;-82
2021/01/27 03:38:14;;;;;;;8.33;4.03;;;;;;;;;;4937877;29;20552;-82
2021/01/27 03:41:21;;;;;;;6.43;4.20;;;;;;;;;;4912759;29;20656;-82
2021/01/27 03:44:31;;;;;;;6.50;4.53;;;;;;;;;;4914699;29;20596;-82
2021/01/27 03:47:50;;;;;;;9.10;4.57;;;;;;;;;;4915940;29;20619;-82
2021/01/27 03:50:57;;;;;;;5.73;4.40;;;;;;;;;;4908026;29;20538;-82
2021/01/27 03:54:05;;;;;;;11.60;4.40;;;;;;;;;;4918945;29;21096;-82
2021/01/27 03:57:36;;;;;;;5.97;4.20;;;;;;;;;;4918405;29;20553;-82
2021/01/27 04:00:41;;;;;;;5.87;4.40;;;;;;;;;;4922273;29;20592;-82
2021/01/27 04:03:45;;;;;;;11.07;4.57;;;;;;;;;;4916144;29;20548;-82
2021/01/27 04:06:49;;;;;;;6.57;4.60;;;;;;;;;;4915604;29;20596;-82
2021/01/27 04:09:54;;;;;;;4.97;4.00;;;;;;;;;;4937381;29;20604;-82
2021/01/27 04:12:58;;;;;;;9.93;4.73;;;;;;;;;;4926114;29;20647;-82
2021/01/27 04:16:03;;;;;;;7.10;4.00;;;;;;;;;;4915838;29;20560;-82
2021/01/27 04:19:07;;;;;;;6.13;3.80;;;;;;;;;;4926307;29;20552;-82
2021/01/27 04:22:11;;;;;;;6.33;4.13;;;;;;;;;;4936995;29;20655;-82
2021/01/27 04:25:16;;;;;;;7.00;4.10;;;;;;;;;;4926286;29;20552;-82
2021/01/27 04:28:20;;;;;;;4.63;3.60;;;;;;;;;;4936768;29;20656;-82
2021/01/27 04:31:24;;;;;;;7.33;4.10;;;;;;;;;;4937430;29;20619;-82
2021/01/27 04:34:28;;;;;;;8.83;4.10;;;;;;;;;;4926013;29;20897;-82
2021/01/27 04:37:33;;;;;;;5.43;3.67;;;;;;;;;;4925827;29;20549;-82
2021/01/27 04:40:41;;;;;;;13.80;5.43;;;;;;;;;;4926426;29;20544;-82
2021/01/27 04:43:48;;;;;;;5.07;4.00;;;;;;;;;;4926245;29;20552;-82
2021/01/27 04:47:03;;;;;;;6.37;4.00;;;;;;;;;;4925893;29;20553;-82
2021/01/27 04:50:31;;;;;;;5.63;4.17;;;;;;;;;;4936802;29;20948;-82
2021/01/27 04:53:44;;;;;;;11.03;4.07;;;;;;;;;;4912199;29;20937;-82
2021/01/27 04:56:59;;;;;;;7.87;4.30;;;;;;;;;;4917699;29;21135;-82
2021/01/27 05:00:10;;;;;;;5.77;4.33;;;;;;;;;;4917463;29;20553;-82
2021/01/27 05:03:42;;;;;;;7.13;4.23;;;;;;;;;;4928526;29;20624;-82
2021/01/27 05:06:53;;;;;;;6.33;3.93;;;;;;;;;;4912024;29;20616;-84
2021/01/27 05:10:00;;;;;;;6.70;4.10;;;;;;;;;;4914260;29;21095;-84
2021/01/27 05:13:17;;;;;;;6.87;4.30;;;;;;;;;;4924477;29;20719;-83
2021/01/27 05:16:25;;;;;;;6.80;3.90;;;;;;;;;;4925598;29;20560;-83
2021/01/27 05:19:29;;;;;;;7.13;3.70;;;;;;;;;;4913658;29;20969;-83
2021/01/27 05:22:33;;;;;;;7.13;3.57;;;;;;;;;;4925404;29;20215;-83
2021/01/27 05:25:43;;;;;;;7.77;4.00;;;;;;;;;;4899171;29;20572;-84
2021/01/27 05:28:59;;;;;;;6.83;3.87;;;;;;;;;;4916781;29;20613;-84
2021/01/27 05:32:21;;;;;;;5.77;3.43;;;;;;;;;;4906202;29;20969;-83
2021/01/27 05:35:28;;;;;;;8.03;4.03;;;;;;;;;;4895957;29;20538;-83
2021/01/27 05:38:33;;;;;;;5.33;3.93;;;;;;;;;;4906515;29;20541;-83
2021/01/27 05:41:37;;;;;;;5.43;3.47;;;;;;;;;;4905786;29;20632;-84
2021/01/27 05:44:41;;;;;;;6.40;3.77;;;;;;;;;;4905898;29;20608;-84
2021/01/27 05:47:45;;;;;;;7.73;3.80;;;;;;;;;;4905957;29;20554;-85
2021/01/27 05:51:11;;;;;;;5.67;3.47;;;;;;;;;;4905970;29;20541;-85
2021/01/27 05:54:26;;;;;;;4.70;3.40;;;;;;;;;;4905763;29;20558;-84
2021/01/27 05:57:31;;;;;;;6.50;3.67;;;;;;;;;;4906131;29;21116;-84
2021/01/27 06:00:36;;;;;;;11.23;4.03;;;;;;;;;;4916479;29;20583;-84
2021/01/27 06:03:49;;;;;;;4.97;3.70;;;;;;;;;;4917684;29;20553;-84
2021/01/27 06:07:07;;;;;;;8.13;3.83;;;;;;;;;;4905674;29;20561;-84
2021/01/27 06:10:30;;;;;;;6.30;3.30;;;;;;;;;;4905450;29;21180;-84
2021/01/27 06:13:35;;;;;;;5.10;3.23;;;;;;;;;;4895487;29;20562;-82
2021/01/27 06:16:43;;;;;;;4.50;3.00;;;;;;;;;;4927973;29;20604;-82
2021/01/27 06:20:08;;;;;;;9.38;3.22;;;;;;;;;;4916459;29;20193;-82
2021/01/27 06:23:33;;;;;;;5.27;3.23;;;;;;;;;;4908461;29;20692;-82
2021/01/27 06:27:01;;;;;;;17.80;10.80;;;;;;;;;;4927291;29;20580;-82
2021/01/27 06:30:21;;;;;;;10.50;6.03;;;;;;;;;;4928608;29;20611;-82
2021/01/27 06:33:37;;;;;;;4.50;3.90;;;;;;;;;;4917474;29;20188;-82
2021/01/27 06:36:53;;;;;;;5.57;3.07;;;;;;;;;;4939190;29;20549;-82
2021/01/27 06:40:17;;;;;;;3.97;2.53;;;;;;;;;;4928115;29;20556;-82
2021/01/27 06:43:44;;;;;;;6.90;3.00;;;;;;;;;;4917760;29;20544;-82
2021/01/27 06:47:14;;;;;;;4.33;2.77;;;;;;;;;;4909902;29;20549;-83
2021/01/27 06:50:39;;;;;;;6.53;3.30;;;;;;;;;;4913214;29;20639;-83
2021/01/27 06:53:55;;;;;;;4.63;3.40;;;;;;;;;;4916886;29;20580;-83
2021/01/27 06:57:43;;;;;;;6.73;3.00;;;;;;;;;;4909818;29;20542;-83
2021/01/27 07:01:09;;;;;;;5.77;3.33;;;;;;;;;;4906353;29;20631;-84
2021/01/27 07:04:55;;;;;;;5.23;3.20;;;;;;;;;;4917536;29;20897;-84
2021/01/27 07:08:25;;;;;;;5.47;3.03;;;;;;;;;;4889680;29;20624;-83
2021/01/27 07:11:52;;;;;;;5.17;3.23;;;;;;;;;;4929415;29;20654;-83
2021/01/27 07:15:18;;;;;;;5.03;3.53;;;;;;;;;;4908935;29;20566;-83
2021/01/27 07:19:00;;;;;;;4.23;3.03;;;;;;;;;;4897781;29;20538;-83
2021/01/27 07:22:18;;;;;;;5.73;3.00;;;;;;;;;;4919304;29;20624;-84
2021/01/27 07:25:45;;;;;;;7.27;3.00;;;;;;;;;;4909401;29;20600;-83
2021/01/27 07:29:14;;;;;;;3.50;2.77;;;;;;;;;;4897971;29;20613;-84
2021/01/27 07:32:24;;;;;;;4.00;2.93;;;;;;;;;;4898250;29;21194;-84
2021/01/27 07:35:43;;;;;;;6.73;3.13;;;;;;;;;;4907429;29;20541;-84
2021/01/27 07:38:50;;;;;;;9.90;3.50;;;;;;;;;;4908717;29;20541;-84
2021/01/27 07:42:08;;;;;;;13.00;5.37;;;;;;;;;;4918887;29;20624;-84
2021/01/27 07:45:17;;;;;;;15.53;6.20;;;;;;;;;;4922402;29;20600;-84
2021/01/27 07:48:21;;;;;;;12.87;6.57;;;;;;;;;;4937766;29;21126;-84
2021/01/27 07:51:36;;;;;;;21.20;7.67;;;;;;;;;;4937469;29;20655;-84
2021/01/27 07:54:55;;;;;;;21.27;8.87;;;;;;;;;;4916082;29;20596;-84
2021/01/27 07:58:07;;;;;;;20.07;7.80;;;;;;;;;;4926725;29;20596;-82
2021/01/27 08:01:31;;;;;;;12.57;6.40;;;;;;;;;;4927057;29;20599;-82
2021/01/27 08:04:45;;;;;;;12.73;6.10;;;;;;;;;;4916092;29;20537;-81
2021/01/27 08:08:11;;;;;;;17.83;7.50;;;;;;;;;;4927231;29;20893;-82
2021/01/27 08:11:20;;;;;;;14.17;6.47;;;;;;;;;;4937546;29;20596;-81
2021/01/27 08:15:02;;;;;;;14.87;6.00;;;;;;;;;;4937325;29;21258;-81
2021/01/27 08:18:18;;;;;;;10.97;6.07;;;;;;;;;;4937156;29;20592;-81
2021/01/27 08:21:26;;;;;;;11.80;6.37;;;;;;;;;;4926627;29;20620;-82
2021/01/27 08:24:33;;;;;;;11.20;6.10;;;;;;;;;;4915296;29;20557;-82
2021/01/27 08:27:38;;;;;;;10.93;5.63;;;;;;;;;;4915447;29;20599;-82
2021/01/27 08:30:42;;;;;;;8.70;5.77;;;;;;;;;;4926357;29;20667;-81
2021/01/27 08:33:46;;;;;;;23.70;12.87;;;;;;;;;;4917819;29;20560;-83
2021/01/27 08:36:50;;;;;;;10.70;7.73;;;;;;;;;;4947579;29;20612;-82
2021/01/27 08:40:29;;;;;;;11.70;6.93;;;;;;;;;;4938384;29;20640;-82
2021/01/27 08:43:38;;;;;;;12.53;7.63;;;;;;;;;;4907313;29;20597;-82
2021/01/27 08:46:55;;;;;;;12.57;8.00;;;;;;;;;;4923347;29;20612;-82
2021/01/27 08:50:01;;;;;;;38.30;24.03;;;;;;;;;;4923015;29;20648;-82
2021/01/27 08:53:08;;;;;;;16.67;10.83;;;;;;;;;;4913322;29;20660;-82
2021/01/27 08:56:12;;;;;;;7.00;6.30;;;;;;;;;;4937484;29;20565;-82
2021/01/27 08:59:27;;;;;;;5.93;5.33;;;;;;;;;;4914809;29;20588;-82
2021/01/27 09:02:48;;;;;;;6.97;4.80;;;;;;;;;;4936680;29;20648;-82
2021/01/27 09:05:52;;;;;;;5.73;4.50;;;;;;;;;;4912354;29;20617;-83
2021/01/27 09:09:14;;;;;;;31.50;18.87;;;;;;;;;;4936311;29;20611;-83
2021/01/27 09:12:26;;;;;;;35.27;21.23;;;;;;;;;;4936654;29;20639;-83
2021/01/27 09:15:32;;;;;;;26.97;15.87;;;;;;;;;;4936835;29;20553;-82
2021/01/27 09:18:37;;;;;;;18.93;12.60;;;;;;;;;;4925564;29;20597;-83
2021/01/27 09:21:43;;;;;;;7.03;4.30;;;;;;;;;;4896142;29;20621;-83
2021/01/27 09:24:49;;;;;;;10.10;6.33;;;;;;;;;;4911931;29;21153;-83
2021/01/27 09:28:03;;;;;;;51.17;23.07;;;;;;;;;;4925777;29;20690;-83
2021/01/27 09:31:29;;;;;;;15.43;9.83;;;;;;;;;;4925098;29;20656;-83
2021/01/27 09:34:33;;;;;;;5.73;4.50;;;;;;;;;;4922532;29;20616;-83
2021/01/27 09:37:47;;;;;;;4.43;3.33;;;;;;;;;;4916166;29;20588;-82
2021/01/27 09:40:53;;;;;;;4.33;3.53;;;;;;;;;;4917170;29;20597;-82
2021/01/27 09:44:00;;;;;;;8.43;6.10;;;;;;;;;;4917069;29;20604;-82
2021/01/27 09:47:09;;;;;;;6.20;3.93;;;;;;;;;;4906674;29;20618;-82
2021/01/27 09:50:14;;;;;;;4.87;3.80;;;;;;;;;;4906240;29;20652;-82
2021/01/27 09:53:23;;;;;;;4.40;3.67;;;;;;;;;;4905900;29;20636;-82
2021/01/27 09:56:29;;;;;;;8.07;6.40;;;;;;;;;;4927309;29;20547;-82
2021/01/27 09:59:34;;;;;;;4.07;3.57;;;;;;;;;;4906258;29;20601;-82
2021/01/27 10:02:38;;;;;;;3.43;2.30;;;;;;;;;;4906437;29;20632;-82
2021/01/27 10:05:43;;;;;;;3.40;2.33;;;;;;;;;;4906291;29;20553;-82
2021/01/27 10:08:53;;;;;;;4.50;2.30;;;;;;;;;;4917058;29;20557;-82
2021/01/27 10:12:09;;;;;;;3.23;2.00;;;;;;;;;;4895400;29;20636;-82
2021/01/27 10:15:31;;;;;;;2.70;1.93;;;;;;;;;;4916952;29;20550;-82
2021/01/27 10:18:45;;;;;;;4.03;2.73;;;;;;;;;;4906912;29;20565;-82
2021/01/27 10:21:51;;;;;;;3.30;2.07;;;;;;;;;;4915110;29;20643;-82
2021/01/27 10:24:59;;;;;;;3.73;2.50;;;;;;;;;;4935870;29;20548;-82
2021/01/27 10:28:18;;;;;;;3.60;3.10;;;;;;;;;;4914239;29;20545;-82
2021/01/27 10:31:36;;;;;;;3.63;2.27;;;;;;;;;;4921950;29;21246;-82
2021/01/27 10:34:43;;;;;;;2.50;2.20;;;;;;;;;;4917417;29;21116;-81
2021/01/27 10:37:49;;;;;;;2.43;2.17;;;;;;;;;;4917153;29;20613;-82
2021/01/27 10:41:09;;;;;;;4.87;2.67;;;;;;;;;;4906447;29;20973;-82
2021/01/27 10:44:26;;;;;;;3.27;2.13;;;;;;;;;;4924677;29;20604;-82
2021/01/27 10:47:31;;;;;;;4.30;2.47;;;;;;;;;;4914741;29;20601;-82
2021/01/27 10:50:41;;;;;;;5.10;3.20;;;;;;;;;;4916225;29;21218;-82
2021/01/27 10:53:46;;;;;;;4.67;2.90;;;;;;;;;;4920555;29;20617;-82
2021/01/27 10:56:55;;;;;;;5.83;4.00;;;;;;;;;;4923573;29;20608;-82
2021/01/27 10:59:59;;;;;;;6.57;4.10;;;;;;;;;;4921029;29;20580;-82
2021/01/27 11:03:05;;;;;;;3.67;3.17;;;;;;;;;;4932649;29;20651;-82
2021/01/27 11:06:09;;;;;;;6.13;3.47;;;;;;;;;;4922400;29;20608;-82
2021/01/27 11:09:14;;;;;;;4.07;2.90;;;;;;;;;;4937807;29;20552;-82
2021/01/27 11:12:18;;;;;;;5.43;2.97;;;;;;;;;;4922890;29;20648;-82
2021/01/27 11:15:22;;;;;;;5.90;2.67;;;;;;;;;;4908712;29;20565;-83
2021/01/27 11:18:26;;;;;;;3.43;2.50;;;;;;;;;;4948415;29;20627;-83
2021/01/27 11:21:36;;;;;;;6.23;3.13;;;;;;;;;;4928154;29;20655;-83
2021/01/27 11:24:40;;;;;;;5.37;4.57;;;;;;;;;;4938833;29;21002;-83
2021/01/27 11:27:46;;;;;;;7.73;5.93;;;;;;;;;;4927357;29;20596;-83
2021/01/27 11:30:51;;;;;;;6.67;4.40;;;;;;;;;;4927093;29;20640;-82
2021/01/27 11:33:56;;;;;;;4.57;3.47;;;;;;;;;;4927535;29;20536;-83
2021/01/27 11:37:00;;;;;;;5.07;3.40;;;;;;;;;;4928180;29;20584;-83
2021/01/27 11:40:06;;;;;;;6.37;2.23;;;;;;;;;;4938345;29;20620;-83
2021/01/27 11:43:10;;;;;;;2.93;1.87;;;;;;;;;;4957758;23;20687;-83
2021/01/27 11:46:17;;;;;;;1.93;1.63;;;;;;;;;;4928091;29;20540;-84
2021/01/27 11:49:21;;;;;;;3.00;1.83;;;;;;;;;;4917082;29;20556;-83
2021/01/27 11:52:25;;;;;;;2.83;2.10;;;;;;;;;;4908517;29;20625;-83
2021/01/27 11:55:30;;;;;;;13.63;7.23;;;;;;;;;;4900437;29;20608;-83
2021/01/27 11:58:34;;;;;;;9.17;3.37;;;;;;;;;;4927906;29;20540;-83
2021/01/27 12:01:38;;;;;;;9.73;5.63;;;;;;;;;;4927736;29;20624;-83
2021/01/27 12:04:43;;;;;;;15.30;7.77;;;;;;;;;;4910678;29;20612;-85
2021/01/27 12:07:47;;;;;;;30.70;13.67;;;;;;;;;;4898491;29;20546;-82
2021/01/27 12:10:51;;;;;;;16.93;7.67;;;;;;;;;;4898222;29;20621;-82
2021/01/27 12:13:55;;;;;;;19.77;8.67;;;;;;;;;;4915748;29;20608;-83
2021/01/27 12:17:00;;;;;;;31.07;12.33;;;;;;;;;;4918844;29;20948;-83
2021/01/27 12:20:05;;;;;;;15.20;6.80;;;;;;;;;;4896755;29;20568;-83
2021/01/27 12:23:10;;;;;;;5.93;3.47;;;;;;;;;;4908176;29;20616;-84
2021/01/27 12:26:14;;;;;;;4.97;3.57;;;;;;;;;;4929636;29;20977;-84
2021/01/27 12:29:19;;;;;;;3.43;2.27;;;;;;;;;;4908424;29;20558;-84
2021/01/27 12:32:23;;;;;;;7.67;3.17;;;;;;;;;;4919416;29;20620;-84
2021/01/27 12:35:28;;;;;;;2.40;1.90;;;;;;;;;;4907970;29;20998;-83
2021/01/27 12:38:32;;;;;;;30.97;13.03;;;;;;;;;;4919148;29;20561;-84
2021/01/27 12:41:37;;;;;;;55.20;21.27;;;;;;;;;;4908503;29;20632;-84
2021/01/27 12:44:45;;;;;;;15.13;6.90;;;;;;;;;;4908725;29;21113;-84
2021/01/27 12:47:50;;;;;;;36.23;15.33;;;;;;;;;;4918761;29;20554;-83
2021/01/27 12:50:54;;;;;;;78.73;39.20;;;;;;;;;;4907891;29;20609;-84
2021/01/27 12:53:50;;;;;;;19.40;13.50;;;;;;;;;;5152397;27;20802;-76
2021/01/27 12:56:55;;;;;;;10.07;5.97;;;;;;;;;;5131964;28;20601;-76
2021/01/27 12:59:59;;;;;;;3.10;2.50;;;;;;;;;;5131315;28;20961;-76
2021/01/27 13:03:03;;;;;;;2.77;1.93;;;;;;;;;;5098616;28;21153;-76
2021/01/27 13:06:08;;;;;;;2.97;1.80;;;;;;;;;;5098935;28;20536;-76
2021/01/27 13:09:12;;;;;;;3.17;2.13;;;;;;;;;;5110554;28;20594;-77
2021/01/27 13:12:17;;;;;;;3.23;2.77;;;;;;;;;;5098108;28;20655;-77
2021/01/27 13:15:21;;;;;;;4.90;2.90;;;;;;;;;;5110100;28;20616;-76
2021/01/27 13:18:26;;;;;;;3.70;2.50;;;;;;;;;;5098506;28;20588;-77
2021/01/27 13:21:30;;;;;;;4.50;3.83;;;;;;;;;;5086352;28;20647;-77
2021/01/27 13:24:34;;;;;;;5.13;4.00;;;;;;;;;;5110383;28;20536;-77
2021/01/27 13:27:40;;;;;;;3.57;2.30;;;;;;;;;;5109918;28;20583;-77
2021/01/27 13:30:44;;;;;;;2.83;2.30;;;;;;;;;;5089848;28;20616;-77
2021/01/27 13:33:48;;;;;;;3.87;2.27;;;;;;;;;;5091415;28;20624;-76
2021/01/27 13:36:52;;;;;;;2.80;2.07;;;;;;;;;;5098006;28;20541;-75
2021/01/27 13:39:56;;;;;;;4.13;2.67;;;;;;;;;;5092911;28;20597;-75
2021/01/27 13:43:00;;;;;;;3.43;2.43;;;;;;;;;;5088158;28;20566;-74
2021/01/27 13:46:04;;;;;;;4.40;2.50;;;;;;;;;;5095657;28;20580;-75
2021/01/27 13:49:09;;;;;;;4.60;2.63;;;;;;;;;;5109890;28;20600;-74
2021/01/27 13:52:13;;;;;;;4.80;2.70;;;;;;;;;;5109492;28;20651;-74
2021/01/27 13:55:18;;;;;;;2.97;1.70;;;;;;;;;;5109246;28;20588;-74
2021/01/27 13:58:22;;;;;;;4.97;3.87;;;;;;;;;;5110010;28;20918;-74
2021/01/27 14:01:26;;;;;;;26.10;20.03;;;;;;;;;;5108816;28;20643;-73
2021/01/27 14:04:31;;;;;;;10.73;8.60;;;;;;;;;;5099756;28;20588;-73
2021/01/27 14:07:35;;;;;;;3.43;2.70;;;;;;;;;;5096537;28;20541;-73
2021/01/27 14:10:39;;;;;;;2.30;1.70;;;;;;;;;;5095310;28;20655;-74
2021/01/27 14:13:44;;;;;;;2.30;1.63;;;;;;;;;;5095777;28;20590;-74
2021/01/27 14:16:48;;;;;;;2.27;2.03;;;;;;;;;;5096052;28;20545;-74
2021/01/27 14:19:52;;;;;;;3.40;2.23;;;;;;;;;;5095677;28;20599;-74
2021/01/27 14:22:56;;;;;;;1.63;1.43;;;;;;;;;;5096063;28;20529;-74
2021/01/27 14:26:01;;;;;;;2.77;1.93;;;;;;;;;;5095940;28;21082;-75
2021/01/27 14:29:05;;;;;;;14.17;9.13;;;;;;;;;;5095543;28;20596;-76
2021/01/27 14:32:10;;;;;;;50.30;24.77;;;;;;;;;;5095449;28;20628;-75
2021/01/27 14:35:16;;;;;;;19.47;14.33;;;;;;;;;;5083038;28;20541;-76
2021/01/27 14:38:22;;;;;;;4.40;3.80;;;;;;;;;;5071883;28;20541;-76
2021/01/27 14:41:27;;;;;;;10.13;7.73;;;;;;;;;;5095424;28;20631;-75
2021/01/27 14:44:34;;;;;;;63.57;37.10;;;;;;;;;;5083091;28;20537;-76
2021/01/27 14:47:38;;;;;;;170.40;90.97;;;;;;;;;;5083128;28;20537;-77
2021/01/27 14:50:43;;;;;;;32.47;17.17;;;;;;;;;;5095223;28;20624;-77
2021/01/27 14:53:47;;;;;;;6.10;5.50;;;;;;;;;;5082402;28;20987;-77
2021/01/27 14:56:51;;;;;;;3.30;3.00;;;;;;;;;;5095382;28;20596;-78
2021/01/27 14:59:55;;;;;;;3.50;2.87;;;;;;;;;;5073988;28;20584;-78
2021/01/27 15:02:59;;;;;;;1.50;1.40;;;;;;;;;;5095309;28;20584;-76
2021/01/27 15:06:04;;;;;;;1.47;1.37;;;;;;;;;;5082564;28;20541;-75
2021/01/27 15:09:08;;;;;;;2.27;1.43;;;;;;;;;;5082199;28;21158;-76
2021/01/27 15:12:13;;;;;;;2.70;1.70;;;;;;;;;;5089977;28;20640;-76
2021/01/27 15:15:22;;;;;;;1.67;1.40;;;;;;;;;;5073947;28;21084;-77
2021/01/27 15:18:26;;;;;;;2.10;1.70;;;;;;;;;;5082204;28;20577;-75
2021/01/27 15:21:35;;;;;;;2.70;1.50;;;;;;;;;;5070515;28;20640;-75
2021/01/27 15:24:39;;;;;;;2.30;1.60;;;;;;;;;;5085681;28;20558;-74
2021/01/27 15:27:43;;;;;;;1.63;1.50;;;;;;;;;;5094821;28;20549;-76
2021/01/27 15:30:47;;;;;;;56.23;23.90;;;;;;;;;;5074498;28;20613;-75
2021/01/27 15:33:52;;;;;;;64.83;27.50;;;;;;;;;;5081828;28;20933;-75
2021/01/27 15:36:56;;;;;;;8.50;4.10;;;;;;;;;;5094506;28;20553;-77
2021/01/27 15:40:00;;;;;;;4.33;2.77;;;;;;;;;;5094056;28;20581;-77
2021/01/27 15:43:11;;;;;;;1.30;1.20;;;;;;;;;;5093964;28;20585;-77
2021/01/27 15:46:16;;;;;;;2.50;1.47;;;;;;;;;;5082059;28;20899;-75
2021/01/27 15:49:20;;;;;;;2.20;2.00;;;;;;;;;;5093777;28;20577;-75
2021/01/27 15:52:24;;;;;;;69.83;30.40;;;;;;;;;;5093302;28;20664;-75
2021/01/27 15:55:29;;;;;;;45.93;23.30;;;;;;;;;;5094190;28;20545;-75
2021/01/27 15:58:33;;;;;;;29.23;16.60;;;;;;;;;;5081425;28;20530;-75
2021/01/27 16:01:37;;;;;;;4.07;3.07;;;;;;;;;;5081580;28;21237;-75
2021/01/27 16:04:42;;;;;;;2.30;1.77;;;;;;;;;;5093833;28;20608;-75
2021/01/27 16:07:46;;;;;;;5.30;3.27;;;;;;;;;;5093694;28;20593;-74
2021/01/27 16:10:51;;;;;;;4.30;3.73;;;;;;;;;;5093880;28;20612;-74
2021/01/27 16:13:55;;;;;;;2.77;2.10;;;;;;;;;;5093430;28;20649;-74
2021/01/27 16:16:59;;;;;;;19.87;10.60;;;;;;;;;;5093925;28;20979;-74
2021/01/27 16:20:05;;;;;;;5.70;3.60;;;;;;;;;;5093091;28;21134;-74
2021/01/27 16:23:11;;;;;;;8.67;4.83;;;;;;;;;;5093496;28;20545;-73
2021/01/27 16:26:15;;;;;;;5.03;2.67;;;;;;;;;;5093797;28;20876;-74
2021/01/27 16:29:19;;;;;;;3.97;2.93;;;;;;;;;;5086697;28;20581;-73
2021/01/27 16:32:23;;;;;;;2.30;1.83;;;;;;;;;;5077340;28;20645;-72
2021/01/27 16:35:31;;;;;;;4.83;3.47;;;;;;;;;;5092963;28;21151;-74
2021/01/27 16:38:36;;;;;;;2.43;2.10;;;;;;;;;;5093006;28;20589;-73
2021/01/27 16:41:40;;;;;;;2.83;2.00;;;;;;;;;;5082363;28;20644;-73
2021/01/27 16:44:45;;;;;;;2.80;2.23;;;;;;;;;;5089667;28;21158;-72
2021/01/27 16:47:50;;;;;;;2.10;1.90;;;;;;;;;;5093332;28;20545;-73
2021/01/27 16:50:55;;;;;;;10.93;6.63;;;;;;;;;;5093138;28;20691;-73
2021/01/27 16:53:59;;;;;;;10.40;7.30;;;;;;;;;;5092697;28;20612;-73
2021/01/27 16:57:04;;;;;;;32.87;24.83;;;;;;;;;;5092705;28;20597;-73
2021/01/27 17:00:12;;;;;;;16.23;14.63;;;;;;;;;;5093361;28;20592;-73
2021/01/27 17:03:17;;;;;;;8.40;7.60;;;;;;;;;;5069404;28;21056;-73
2021/01/27 17:06:22;;;;;;;5.40;3.40;;;;;;;;;;5080215;28;20620;-73
2021/01/27 17:09:27;;;;;;;3.50;2.50;;;;;;;;;;5092930;28;20939;-73
2021/01/27 17:12:31;;;;;;;6.07;5.30;;;;;;;;;;5093265;28;21182;-73
2021/01/27 17:15:36;;;;;;;5.03;3.07;;;;;;;;;;5080203;28;20884;-74
2021/01/27 17:18:42;;;;;;;3.93;2.27;;;;;;;;;;5068964;28;20604;-73
2021/01/27 17:21:47;;;;;;;3.57;2.33;;;;;;;;;;5080272;28;20640;-73
2021/01/27 17:24:52;;;;;;;2.97;2.20;;;;;;;;;;5092547;28;20958;-73
2021/01/27 17:27:56;;;;;;;2.87;2.17;;;;;;;;;;5092560;28;21138;-73
2021/01/27 17:31:00;;;;;;;3.07;1.90;;;;;;;;;;5092923;28;20620;-73
2021/01/27 17:34:06;;;;;;;2.93;2.20;;;;;;;;;;5089793;28;20998;-73
2021/01/27 17:37:10;;;;;;;3.27;2.50;;;;;;;;;;5092796;28;21157;-73
2021/01/27 17:40:16;;;;;;;4.90;2.50;;;;;;;;;;5095470;28;20588;-73
2021/01/27 17:43:20;;;;;;;2.97;2.17;;;;;;;;;;5083795;28;20581;-73
2021/01/27 17:46:24;;;;;;;3.97;2.40;;;;;;;;;;5096102;28;20572;-73
2021/01/27 17:49:29;;;;;;;17.07;9.13;;;;;;;;;;5088418;28;20582;-73
2021/01/27 17:52:34;;;;;;;18.50;11.13;;;;;;;;;;5075846;28;20633;-73
2021/01/27 17:55:38;;;;;;;10.80;8.47;;;;;;;;;;5076255;28;20530;-73
2021/01/27 17:58:42;;;;;;;5.57;3.67;;;;;;;;;;5095768;28;20596;-73
2021/01/27 18:01:46;;;;;;;5.10;3.33;;;;;;;;;;5083292;28;20616;-73
2021/01/27 18:04:50;;;;;;;5.87;3.57;;;;;;;;;;5096144;28;20584;-73
2021/01/27 18:07:55;;;;;;;6.17;3.60;;;;;;;;;;5083410;28;20596;-73
2021/01/27 18:10:59;;;;;;;5.50;3.27;;;;;;;;;;5060958;28;20645;-73
2021/01/27 18:14:06;;;;;;;7.47;3.77;;;;;;;;;;5055322;28;20622;-73
2021/01/27 18:17:10;;;;;;;21.97;12.03;;;;;;;;;;5055658;28;20587;-73
2021/01/27 18:20:18;;;;;;;6.63;3.90;;;;;;;;;;5043027;28;20599;-72
2021/01/27 18:23:25;;;;;;;5.27;4.20;;;;;;;;;;5055721;28;21081;-72
2021/01/27 18:26:30;;;;;;;3.83;3.13;;;;;;;;;;5055260;28;20594;-73
2021/01/27 18:29:34;;;;;;;3.77;3.10;;;;;;;;;;5054865;28;20579;-73
2021/01/27 18:32:39;;;;;;;4.30;3.13;;;;;;;;;;5055046;28;21244;-72
2021/01/27 18:35:46;;;;;;;3.63;3.10;;;;;;;;;;5055024;28;20574;-73
2021/01/27 18:38:50;;;;;;;4.50;3.40;;;;;;;;;;5055448;28;20543;-73
2021/01/27 18:41:55;;;;;;;3.50;3.00;;;;;;;;;;5055097;28;20649;-72
2021/01/27 18:45:00;;;;;;;5.07;3.43;;;;;;;;;;5055318;28;20539;-72